sensor_id;sensor_type;location;lat;lon;timestamp;pressure;altitude;pressure_sealevel;temperature;humidity
57192;BME280;43052;52.588;13.396;2023-08-24T00:01:34;101414.13;;;16.25;78.32
57192;BME280;43052;52.588;13.396;2023-08-24T00:03:59;101411.47;;;16.24;78.69
57192;BME280;43052;52.588;13.396;2023-08-24T00:06:25;101411.53;;;16.22;78.73
57192;BME280;43052;52.588;13.396;2023-08-24T00:08:50;101423.75;;;16.26;79.05
57192;BME280;43052;52.588;13.396;2023-08-24T00:11:15;101409.81;;;16.18;79.21
57192;BME280;43052;52.588;13.396;2023-08-24T00:13:43;101405.53;;;16.14;79.25
57192;BME280;43052;52.588;13.396;2023-08-24T00:16:18;101416.03;;;16.16;79.34
57192;BME280;43052;52.588;13.396;2023-08-24T00:18:44;101413.41;;;16.16;79.39
57192;BME280;43052;52.588;13.396;2023-08-24T00:21:10;101410.00;;;16.10;79.68
57192;BME280;43052;52.588;13.396;2023-08-24T00:23:35;101409.00;;;16.14;79.79
57192;BME280;43052;52.588;13.396;2023-08-24T00:26:00;101401.09;;;16.14;79.96
57192;BME280;43052;52.588;13.396;2023-08-24T00:28:26;101413.38;;;16.17;80.36
57192;BME280;43052;52.588;13.396;2023-08-24T00:30:51;101390.72;;;16.07;80.15
57192;BME280;43052;52.588;13.396;2023-08-24T00:33:16;101401.19;;;16.11;79.71
57192;BME280;43052;52.588;13.396;2023-08-24T00:35:41;101400.41;;;16.05;79.89
57192;BME280;43052;52.588;13.396;2023-08-24T00:38:07;101400.38;;;16.06;79.95
57192;BME280;43052;52.588;13.396;2023-08-24T00:40:32;101403.91;;;16.05;80.08
57192;BME280;43052;52.588;13.396;2023-08-24T00:42:57;101398.72;;;16.01;79.98
57192;BME280;43052;52.588;13.396;2023-08-24T00:45:22;101409.25;;;16.01;79.96
57192;BME280;43052;52.588;13.396;2023-08-24T00:47:48;101405.00;;;15.93;80.00
57192;BME280;43052;52.588;13.396;2023-08-24T00:50:13;101416.44;;;15.94;79.99
57192;BME280;43052;52.588;13.396;2023-08-24T00:52:41;101400.81;;;15.80;80.07
57192;BME280;43052;52.588;13.396;2023-08-24T00:55:08;101400.81;;;15.80;80.15
57192;BME280;43052;52.588;13.396;2023-08-24T00:57:37;101403.47;;;15.78;80.26
57192;BME280;43052;52.588;13.396;2023-08-24T01:00:04;101402.56;;;15.81;80.54
57192;BME280;43052;52.588;13.396;2023-08-24T01:02:37;101395.63;;;15.74;80.52
57192;BME280;43052;52.588;13.396;2023-08-24T01:05:02;101396.47;;;15.76;80.76
57192;BME280;43052;52.588;13.396;2023-08-24T01:07:30;101373.63;;;15.76;80.94
57192;BME280;43052;52.588;13.396;2023-08-24T01:09:56;101394.44;;;15.95;80.88
57192;BME280;43052;52.588;13.396;2023-08-24T01:12:31;101381.91;;;16.08;80.98
57192;BME280;43052;52.588;13.396;2023-08-24T01:15:04;101398.19;;;16.30;80.51
57192;BME280;43052;52.588;13.396;2023-08-24T01:17:32;101391.91;;;16.37;80.24
57192;BME280;43052;52.588;13.396;2023-08-24T01:19:58;101372.44;;;16.41;80.33
57192;BME280;43052;52.588;13.396;2023-08-24T01:25:12;101391.09;;;16.76;79.23
57192;BME280;43052;52.588;13.396;2023-08-24T01:27:40;101394.34;;;16.89;79.18
57192;BME280;43052;52.588;13.396;2023-08-24T01:30:06;101387.19;;;16.96;79.05
57192;BME280;43052;52.588;13.396;2023-08-24T01:32:33;101386.22;;;17.00;78.68
57192;BME280;43052;52.588;13.396;2023-08-24T01:35:01;101375.44;;;17.09;78.34
57192;BME280;43052;52.588;13.396;2023-08-24T01:37:26;101389.16;;;17.25;77.84
57192;BME280;43052;52.588;13.396;2023-08-24T01:40:04;101377.75;;;17.23;77.52
57192;BME280;43052;52.588;13.396;2023-08-24T01:43:01;101385.41;;;17.34;77.42
57192;BME280;43052;52.588;13.396;2023-08-24T01:45:29;101387.88;;;17.42;77.36
57192;BME280;43052;52.588;13.396;2023-08-24T01:47:56;101384.22;;;17.47;76.92
57192;BME280;43052;52.588;13.396;2023-08-24T01:50:22;101387.72;;;17.49;77.00
57192;BME280;43052;52.588;13.396;2023-08-24T01:52:52;101385.88;;;17.51;77.11
57192;BME280;43052;52.588;13.396;2023-08-24T01:55:18;101400.63;;;17.62;76.82
57192;BME280;43052;52.588;13.396;2023-08-24T01:57:43;101382.09;;;17.62;76.55
57192;BME280;43052;52.588;13.396;2023-08-24T02:00:09;101387.13;;;17.73;76.24
57192;BME280;43052;52.588;13.396;2023-08-24T02:02:35;101380.06;;;17.73;76.09
57192;BME280;43052;52.588;13.396;2023-08-24T02:05:01;101381.81;;;17.73;75.98
57192;BME280;43052;52.588;13.396;2023-08-24T02:07:26;101375.91;;;17.63;75.69
57192;BME280;43052;52.588;13.396;2023-08-24T02:09:51;101375.84;;;17.64;75.99
57192;BME280;43052;52.588;13.396;2023-08-24T02:12:16;101377.72;;;17.61;76.43
57192;BME280;43052;52.588;13.396;2023-08-24T02:14:41;101369.78;;;17.62;76.27
57192;BME280;43052;52.588;13.396;2023-08-24T02:17:07;101373.09;;;17.70;76.10
57192;BME280;43052;52.588;13.396;2023-08-24T02:19:32;101373.69;;;17.80;76.27
57192;BME280;43052;52.588;13.396;2023-08-24T02:21:57;101376.94;;;17.92;75.84
57192;BME280;43052;52.588;13.396;2023-08-24T02:24:22;101368.13;;;17.91;76.13
57192;BME280;43052;52.588;13.396;2023-08-24T02:26:48;101381.91;;;18.04;75.64
57192;BME280;43052;52.588;13.396;2023-08-24T02:29:13;101369.56;;;18.05;75.22
57192;BME280;43052;52.588;13.396;2023-08-24T02:31:39;101377.16;;;18.17;75.17
57192;BME280;43052;52.588;13.396;2023-08-24T02:34:04;101372.00;;;18.12;75.29
57192;BME280;43052;52.588;13.396;2023-08-24T02:36:29;101377.16;;;18.17;74.88
57192;BME280;43052;52.588;13.396;2023-08-24T02:38:58;101382.19;;;18.26;74.96
57192;BME280;43052;52.588;13.396;2023-08-24T02:41:23;101378.66;;;18.27;74.65
57192;BME280;43052;52.588;13.396;2023-08-24T02:43:48;101373.34;;;18.27;74.51
57192;BME280;43052;52.588;13.396;2023-08-24T02:46:13;101377.59;;;18.33;74.47
57192;BME280;43052;52.588;13.396;2023-08-24T02:48:38;101371.41;;;18.34;74.06
57192;BME280;43052;52.588;13.396;2023-08-24T02:51:05;101368.56;;;18.42;74.20
57192;BME280;43052;52.588;13.396;2023-08-24T02:53:31;101383.34;;;18.49;74.10
57192;BME280;43052;52.588;13.396;2023-08-24T02:55:57;101347.53;;;18.36;74.13
57192;BME280;43052;52.588;13.396;2023-08-24T02:58:22;101358.88;;;18.41;73.84
57192;BME280;43052;52.588;13.396;2023-08-24T03:00:48;101368.22;;;18.53;73.78
57192;BME280;43052;52.588;13.396;2023-08-24T03:03:14;101363.13;;;18.46;73.59
57192;BME280;43052;52.588;13.396;2023-08-24T03:05:40;101337.84;;;18.35;73.79
57192;BME280;43052;52.588;13.396;2023-08-24T03:08:05;101356.88;;;18.47;73.88
57192;BME280;43052;52.588;13.396;2023-08-24T03:10:31;101363.84;;;18.52;73.73
57192;BME280;43052;52.588;13.396;2023-08-24T03:12:59;101367.47;;;18.47;74.08
57192;BME280;43052;52.588;13.396;2023-08-24T03:15:24;101351.69;;;18.44;73.97
57192;BME280;43052;52.588;13.396;2023-08-24T03:17:49;101374.53;;;18.48;74.23
57192;BME280;43052;52.588;13.396;2023-08-24T03:20:15;101368.38;;;18.48;74.26
57192;BME280;43052;52.588;13.396;2023-08-24T03:22:40;101359.41;;;18.52;73.90
57192;BME280;43052;52.588;13.396;2023-08-24T03:25:06;101364.63;;;18.55;74.04
57192;BME280;43052;52.588;13.396;2023-08-24T03:27:31;101348.91;;;18.49;74.25
57192;BME280;43052;52.588;13.396;2023-08-24T03:29:57;101357.44;;;18.59;74.12
57192;BME280;43052;52.588;13.396;2023-08-24T03:32:22;101345.31;;;18.52;74.04
57192;BME280;43052;52.588;13.396;2023-08-24T03:34:48;101365.19;;;18.65;73.39
57192;BME280;43052;52.588;13.396;2023-08-24T03:37:13;101345.88;;;18.63;73.49
57192;BME280;43052;52.588;13.396;2023-08-24T03:39:39;101350.97;;;18.69;73.14
57192;BME280;43052;52.588;13.396;2023-08-24T03:42:04;101345.94;;;18.60;73.18
57192;BME280;43052;52.588;13.396;2023-08-24T03:44:30;101339.69;;;18.62;73.29
57192;BME280;43052;52.588;13.396;2023-08-24T03:46:55;101352.72;;;18.70;73.50
57192;BME280;43052;52.588;13.396;2023-08-24T03:49:20;101327.47;;;18.58;73.42
57192;BME280;43052;52.588;13.396;2023-08-24T03:51:46;101341.63;;;18.56;73.53
57192;BME280;43052;52.588;13.396;2023-08-24T03:54:11;101334.72;;;18.52;73.64
57192;BME280;43052;52.588;13.396;2023-08-24T03:56:37;101346.81;;;18.60;73.82
57192;BME280;43052;52.588;13.396;2023-08-24T03:59:02;101336.34;;;18.56;73.88
57192;BME280;43052;52.588;13.396;2023-08-24T04:01:27;101317.00;;;18.54;73.87
57192;BME280;43052;52.588;13.396;2023-08-24T04:03:53;101342.19;;;18.67;74.24
57192;BME280;43052;52.588;13.396;2023-08-24T04:06:18;101339.53;;;18.67;74.16
57192;BME280;43052;52.588;13.396;2023-08-24T04:08:44;101349.28;;;18.67;74.20
57192;BME280;43052;52.588;13.396;2023-08-24T04:11:09;101335.16;;;18.66;73.98
57192;BME280;43052;52.588;13.396;2023-08-24T04:13:35;101347.34;;;18.72;74.12
57192;BME280;43052;52.588;13.396;2023-08-24T04:16:00;101344.69;;;18.72;74.03
57192;BME280;43052;52.588;13.396;2023-08-24T04:18:25;101349.78;;;18.79;74.03
57192;BME280;43052;52.588;13.396;2023-08-24T04:20:52;101357.47;;;18.87;74.07
57192;BME280;43052;52.588;13.396;2023-08-24T04:23:23;101339.19;;;18.79;74.24
57192;BME280;43052;52.588;13.396;2023-08-24T04:25:50;101336.38;;;18.84;73.76
57192;BME280;43052;52.588;13.396;2023-08-24T04:28:15;101336.28;;;18.87;74.00
57192;BME280;43052;52.588;13.396;2023-08-24T04:30:40;101353.72;;;18.96;73.92
57192;BME280;43052;52.588;13.396;2023-08-24T04:33:05;101342.22;;;18.97;73.76
57192;BME280;43052;52.588;13.396;2023-08-24T04:35:34;101347.31;;;19.03;73.68
57192;BME280;43052;52.588;13.396;2023-08-24T04:38:00;101346.25;;;19.09;73.37
57192;BME280;43052;52.588;13.396;2023-08-24T04:40:25;101344.13;;;19.20;73.30
57192;BME280;43052;52.588;13.396;2023-08-24T04:42:50;101351.72;;;19.31;72.79
57192;BME280;43052;52.588;13.396;2023-08-24T04:45:16;101341.97;;;19.32;72.91
57192;BME280;43052;52.588;13.396;2023-08-24T04:47:41;101350.44;;;19.43;72.28
57192;BME280;43052;52.588;13.396;2023-08-24T04:50:08;101345.69;;;19.53;72.13
57192;BME280;43052;52.588;13.396;2023-08-24T04:52:33;101341.19;;;19.55;72.04
57192;BME280;43052;52.588;13.396;2023-08-24T04:54:59;101332.22;;;19.59;71.72
57192;BME280;43052;52.588;13.396;2023-08-24T04:57:25;101336.41;;;19.66;72.10
57192;BME280;43052;52.588;13.396;2023-08-24T04:59:50;101336.16;;;19.74;71.54
57192;BME280;43052;52.588;13.396;2023-08-24T05:02:15;101348.03;;;19.89;70.86
57192;BME280;43052;52.588;13.396;2023-08-24T05:04:41;101350.19;;;20.03;70.43
57192;BME280;43052;52.588;13.396;2023-08-24T05:07:06;101340.13;;;20.13;70.66
57192;BME280;43052;52.588;13.396;2023-08-24T05:09:31;101352.59;;;20.34;69.96
57192;BME280;43052;52.588;13.396;2023-08-24T05:11:56;101340.75;;;20.43;69.70
57192;BME280;43052;52.588;13.396;2023-08-24T05:14:22;101351.81;;;20.55;68.63
57192;BME280;43052;52.588;13.396;2023-08-24T05:16:47;101338.16;;;20.65;68.92
57192;BME280;43052;52.588;13.396;2023-08-24T05:19:12;101351.53;;;20.86;68.61
57192;BME280;43052;52.588;13.396;2023-08-24T05:21:37;101344.00;;;20.97;67.22
57192;BME280;43052;52.588;13.396;2023-08-24T05:24:03;101344.31;;;21.12;66.33
57192;BME280;43052;52.588;13.396;2023-08-24T05:26:29;101353.00;;;21.38;66.02
57192;BME280;43052;52.588;13.396;2023-08-24T05:28:54;101343.56;;;21.73;65.09
57192;BME280;43052;52.588;13.396;2023-08-24T05:31:19;101341.75;;;22.74;60.68
57192;BME280;43052;52.588;13.396;2023-08-24T05:33:45;101356.91;;;23.10;59.44
57192;BME280;43052;52.588;13.396;2023-08-24T05:36:10;101356.44;;;23.56;58.12
57192;BME280;43052;52.588;13.396;2023-08-24T05:38:35;101335.69;;;24.80;53.90
57192;BME280;43052;52.588;13.396;2023-08-24T05:41:00;101343.22;;;25.19;53.35
57192;BME280;43052;52.588;13.396;2023-08-24T05:43:26;101336.53;;;25.88;51.28
57192;BME280;43052;52.588;13.396;2023-08-24T05:45:51;101335.13;;;26.54;49.71
57192;BME280;43052;52.588;13.396;2023-08-24T05:48:17;101346.19;;;26.77;49.14
57192;BME280;43052;52.588;13.396;2023-08-24T05:50:44;101346.59;;;27.53;46.30
57192;BME280;43052;52.588;13.396;2023-08-24T05:53:10;101349.44;;;28.29;44.79
57192;BME280;43052;52.588;13.396;2023-08-24T05:55:35;101347.13;;;28.99;43.35
57192;BME280;43052;52.588;13.396;2023-08-24T05:58:01;101350.97;;;29.90;40.56
57192;BME280;43052;52.588;13.396;2023-08-24T06:00:26;101339.00;;;30.17;39.64
57192;BME280;43052;52.588;13.396;2023-08-24T06:02:51;101338.41;;;29.66;39.46
57192;BME280;43052;52.588;13.396;2023-08-24T06:05:16;101340.00;;;29.58;39.77
57192;BME280;43052;52.588;13.396;2023-08-24T06:07:43;101350.06;;;30.92;37.45
57192;BME280;43052;52.588;13.396;2023-08-24T06:10:08;101344.34;;;32.24;35.61
57192;BME280;43052;52.588;13.396;2023-08-24T06:12:34;101345.25;;;33.24;33.32
57192;BME280;43052;52.588;13.396;2023-08-24T06:14:59;101341.53;;;34.12;32.52
57192;BME280;43052;52.588;13.396;2023-08-24T06:17:27;101338.59;;;34.79;30.95
57192;BME280;43052;52.588;13.396;2023-08-24T06:19:52;101344.25;;;35.40;30.49
57192;BME280;43052;52.588;13.396;2023-08-24T06:22:18;101352.69;;;35.99;29.58
57192;BME280;43052;52.588;13.396;2023-08-24T06:24:43;101335.44;;;36.60;28.57
57192;BME280;43052;52.588;13.396;2023-08-24T06:27:08;101345.03;;;37.30;27.35
57192;BME280;43052;52.588;13.396;2023-08-24T06:29:33;101338.72;;;37.71;26.95
57192;BME280;43052;52.588;13.396;2023-08-24T06:31:59;101330.28;;;37.97;25.73
57192;BME280;43052;52.588;13.396;2023-08-24T06:34:24;101340.03;;;38.39;24.98
57192;BME280;43052;52.588;13.396;2023-08-24T06:36:50;101335.72;;;38.77;24.51
57192;BME280;43052;52.588;13.396;2023-08-24T06:39:15;101326.78;;;39.29;23.85
57192;BME280;43052;52.588;13.396;2023-08-24T06:41:41;101329.44;;;39.76;23.52
57192;BME280;43052;52.588;13.396;2023-08-24T06:44:06;101325.09;;;39.97;22.48
57192;BME280;43052;52.588;13.396;2023-08-24T06:46:31;101336.28;;;40.32;22.63
57192;BME280;43052;52.588;13.396;2023-08-24T06:48:57;101343.09;;;40.72;22.59
57192;BME280;43052;52.588;13.396;2023-08-24T06:51:24;101343.69;;;41.40;21.78
57192;BME280;43052;52.588;13.396;2023-08-24T06:53:50;101355.56;;;42.04;20.56
57192;BME280;43052;52.588;13.396;2023-08-24T06:56:15;101358.25;;;42.46;20.68
57192;BME280;43052;52.588;13.396;2023-08-24T06:58:40;101360.72;;;42.82;19.73
57192;BME280;43052;52.588;13.396;2023-08-24T07:01:06;101359.00;;;42.74;19.36
57192;BME280;43052;52.588;13.396;2023-08-24T07:03:32;101342.88;;;42.03;20.44
57192;BME280;43052;52.588;13.396;2023-08-24T07:05:58;101364.00;;;42.51;19.89
57192;BME280;43052;52.588;13.396;2023-08-24T07:08:23;101361.75;;;42.74;19.31
57192;BME280;43052;52.588;13.396;2023-08-24T07:10:49;101362.41;;;42.97;19.70
57192;BME280;43052;52.588;13.396;2023-08-24T07:13:14;101344.22;;;43.56;19.38
57192;BME280;43052;52.588;13.396;2023-08-24T07:15:39;101369.56;;;44.05;17.87
57192;BME280;43052;52.588;13.396;2023-08-24T07:18:05;101353.69;;;44.01;17.97
57192;BME280;43052;52.588;13.396;2023-08-24T07:20:32;101358.84;;;44.29;18.13
57192;BME280;43052;52.588;13.396;2023-08-24T07:22:57;101352.38;;;44.55;17.74
57192;BME280;43052;52.588;13.396;2023-08-24T07:25:23;101350.47;;;44.88;17.38
57192;BME280;43052;52.588;13.396;2023-08-24T07:27:48;101357.38;;;45.29;17.32
57192;BME280;43052;52.588;13.396;2023-08-24T07:30:32;101359.00;;;45.81;16.81
57192;BME280;43052;52.588;13.396;2023-08-24T07:47:30;101336.13;;;45.74;15.75
57192;BME280;43052;52.588;13.396;2023-08-24T07:49:58;101345.88;;;44.75;16.40
57192;BME280;43052;52.588;13.396;2023-08-24T07:52:27;101315.53;;;45.07;16.13
57192;BME280;43052;52.588;13.396;2023-08-24T07:55:03;101316.59;;;46.43;15.66
57192;BME280;43052;52.588;13.396;2023-08-24T07:57:30;101343.88;;;47.89;14.77
57192;BME280;43052;52.588;13.396;2023-08-24T08:00:11;101332.44;;;48.55;13.72
57192;BME280;43052;52.588;13.396;2023-08-24T08:03:08;101325.16;;;47.55;14.69
57192;BME280;43052;52.588;13.396;2023-08-24T08:05:45;101314.44;;;47.23;14.12
57192;BME280;43052;52.588;13.396;2023-08-24T08:08:28;101344.22;;;47.92;13.95
57192;BME280;43052;52.588;13.396;2023-08-24T08:11:08;101323.94;;;46.61;14.93
57192;BME280;43052;52.588;13.396;2023-08-24T08:13:36;101337.28;;;45.84;15.73
57192;BME280;43052;52.588;13.396;2023-08-24T08:16:25;101326.19;;;45.03;16.42
57192;BME280;43052;52.588;13.396;2023-08-24T08:18:50;101309.50;;;44.59;16.21
57192;BME280;43052;52.588;13.396;2023-08-24T08:21:17;101336.94;;;45.12;16.89
57192;BME280;43052;52.588;13.396;2023-08-24T08:23:45;101329.09;;;46.27;15.43
57192;BME280;43052;52.588;13.396;2023-08-24T08:26:11;101326.56;;;44.82;16.36
57192;BME280;43052;52.588;13.396;2023-08-24T08:28:39;101336.41;;;42.24;17.82
57192;BME280;43052;52.588;13.396;2023-08-24T08:31:04;101333.75;;;40.00;20.47
57192;BME280;43052;52.588;13.396;2023-08-24T08:33:29;101333.91;;;38.37;21.85
57192;BME280;43052;52.588;13.396;2023-08-24T08:35:55;101332.25;;;36.89;23.85
57192;BME280;43052;52.588;13.396;2023-08-24T08:38:21;101332.84;;;35.54;24.85
57192;BME280;43052;52.588;13.396;2023-08-24T08:40:51;101315.50;;;34.19;26.65
57192;BME280;43052;52.588;13.396;2023-08-24T08:43:18;101298.03;;;33.26;28.05
57192;BME280;43052;52.588;13.396;2023-08-24T08:45:46;101308.41;;;32.62;28.91
57192;BME280;43052;52.588;13.396;2023-08-24T08:48:12;101309.09;;;32.04;29.42
57192;BME280;43052;52.588;13.396;2023-08-24T08:50:38;101323.75;;;31.38;30.50
57192;BME280;43052;52.588;13.396;2023-08-24T08:53:04;101327.16;;;30.86;31.41
57192;BME280;43052;52.588;13.396;2023-08-24T08:55:30;101312.00;;;30.51;32.00
57192;BME280;43052;52.588;13.396;2023-08-24T08:57:56;101314.34;;;30.44;32.27
57192;BME280;43052;52.588;13.396;2023-08-24T09:00:23;101325.50;;;30.40;32.30
57192;BME280;43052;52.588;13.396;2023-08-24T09:02:51;101303.88;;;30.74;32.41
57192;BME280;43052;52.588;13.396;2023-08-24T09:05:18;101318.78;;;32.47;30.19
57192;BME280;43052;52.588;13.396;2023-08-24T09:07:45;101285.19;;;33.96;28.56
57192;BME280;43052;52.588;13.396;2023-08-24T09:10:12;101306.72;;;37.07;24.94
57192;BME280;43052;52.588;13.396;2023-08-24T09:12:37;101280.66;;;38.65;23.55
57192;BME280;43052;52.588;13.396;2023-08-24T09:15:03;101294.97;;;39.67;22.62
57192;BME280;43052;52.588;13.396;2023-08-24T09:17:29;101298.56;;;41.42;20.47
57192;BME280;43052;52.588;13.396;2023-08-24T09:19:59;101298.13;;;42.91;19.17
57192;BME280;43052;52.588;13.396;2023-08-24T09:22:24;101276.47;;;43.55;18.79
57192;BME280;43052;52.588;13.396;2023-08-24T09:24:49;101277.53;;;45.72;16.93
57192;BME280;43052;52.588;13.396;2023-08-24T09:27:16;101289.66;;;47.52;14.70
57192;BME280;43052;52.588;13.396;2023-08-24T09:29:42;101272.44;;;48.66;14.06
57192;BME280;43052;52.588;13.396;2023-08-24T09:32:08;101276.34;;;49.82;13.28
57192;BME280;43052;52.588;13.396;2023-08-24T09:34:36;101252.09;;;50.60;12.04
57192;BME280;43052;52.588;13.396;2023-08-24T09:37:03;101264.63;;;51.00;11.88
57192;BME280;43052;52.588;13.396;2023-08-24T09:39:31;101242.91;;;50.97;11.51
57192;BME280;43052;52.588;13.396;2023-08-24T09:42:00;101248.50;;;50.05;12.23
57192;BME280;43052;52.588;13.396;2023-08-24T09:44:27;101253.25;;;50.64;11.53
57192;BME280;43052;52.588;13.396;2023-08-24T09:46:52;101248.09;;;51.36;11.21
57192;BME280;43052;52.588;13.396;2023-08-24T09:49:18;101251.66;;;51.90;10.44
57192;BME280;43052;52.588;13.396;2023-08-24T09:51:44;101239.72;;;52.15;10.13
57192;BME280;43052;52.588;13.396;2023-08-24T09:54:10;101241.94;;;51.93;10.01
57192;BME280;43052;52.588;13.396;2023-08-24T09:56:37;101241.63;;;51.84;10.25
57192;BME280;43052;52.588;13.396;2023-08-24T09:59:10;101235.88;;;51.37;10.83
57192;BME280;43052;52.588;13.396;2023-08-24T10:01:37;101237.63;;;51.54;10.97
57192;BME280;43052;52.588;13.396;2023-08-24T10:04:05;101234.41;;;52.03;10.63
57192;BME280;43052;52.588;13.396;2023-08-24T10:06:30;101227.75;;;52.36;10.20
57192;BME280;43052;52.588;13.396;2023-08-24T10:08:59;101226.06;;;52.24;9.74
57192;BME280;43052;52.588;13.396;2023-08-24T10:11:28;101234.72;;;52.17;9.84
57192;BME280;43052;52.588;13.396;2023-08-24T10:14:07;101229.13;;;52.07;9.71
57192;BME280;43052;52.588;13.396;2023-08-24T10:16:35;101235.22;;;51.94;9.59
57192;BME280;43052;52.588;13.396;2023-08-24T10:19:02;101221.84;;;51.96;9.32
57192;BME280;43052;52.588;13.396;2023-08-24T10:21:28;101224.66;;;52.01;9.76
57192;BME280;43052;52.588;13.396;2023-08-24T10:23:56;101235.19;;;51.73;10.03
57192;BME280;43052;52.588;13.396;2023-08-24T10:30:01;101236.34;;;51.14;10.55
57192;BME280;43052;52.588;13.396;2023-08-24T10:35:55;101217.53;;;50.18;11.53
57192;BME280;43052;52.588;13.396;2023-08-24T10:38:27;101194.50;;;49.95;11.20
57192;BME280;43052;52.588;13.396;2023-08-24T10:41:03;101219.97;;;49.37;11.35
57192;BME280;43052;52.588;13.396;2023-08-24T10:43:34;101207.56;;;48.84;11.91
57192;BME280;43052;52.588;13.396;2023-08-24T10:46:00;101219.06;;;48.58;12.21
57192;BME280;43052;52.588;13.396;2023-08-24T10:51:22;101210.34;;;41.80;17.19
57192;BME280;43052;52.588;13.396;2023-08-24T10:53:52;101222.75;;;39.08;20.82
57192;BME280;43052;52.588;13.396;2023-08-24T10:56:19;101235.66;;;37.33;21.49
57192;BME280;43052;52.588;13.396;2023-08-24T10:58:46;101224.22;;;35.79;23.21
57192;BME280;43052;52.588;13.396;2023-08-24T11:01:18;101217.88;;;34.55;24.43
57192;BME280;43052;52.588;13.396;2023-08-24T11:03:50;101208.72;;;33.54;25.95
57192;BME280;43052;52.588;13.396;2023-08-24T11:06:23;101189.75;;;32.48;26.70
57192;BME280;43052;52.588;13.396;2023-08-24T11:08:49;101208.84;;;31.96;29.03
57192;BME280;43052;52.588;13.396;2023-08-24T11:11:21;101203.44;;;31.55;29.53
57192;BME280;43052;52.588;13.396;2023-08-24T11:14:19;101204.75;;;31.39;29.88
57192;BME280;43052;52.588;13.396;2023-08-24T11:16:47;101187.16;;;31.14;30.39
57192;BME280;43052;52.588;13.396;2023-08-24T11:19:13;101183.09;;;31.08;29.77
57192;BME280;43052;52.588;13.396;2023-08-24T11:21:39;101179.41;;;30.88;30.38
57192;BME280;43052;52.588;13.396;2023-08-24T11:24:06;101169.59;;;30.87;31.33
57192;BME280;43052;52.588;13.396;2023-08-24T11:26:31;101154.00;;;30.70;31.96
57192;BME280;43052;52.588;13.396;2023-08-24T11:28:56;101174.25;;;30.64;31.64
57192;BME280;43052;52.588;13.396;2023-08-24T11:31:23;101165.72;;;30.47;31.76
57192;BME280;43052;52.588;13.396;2023-08-24T11:33:53;101163.81;;;30.27;31.92
57192;BME280;43052;52.588;13.396;2023-08-24T11:36:20;101146.59;;;30.18;33.04
57192;BME280;43052;52.588;13.396;2023-08-24T11:38:46;101139.25;;;30.09;32.51
57192;BME280;43052;52.588;13.396;2023-08-24T11:41:16;101151.97;;;30.18;33.50
57192;BME280;43052;52.588;13.396;2023-08-24T11:43:43;101140.88;;;30.32;33.43
57192;BME280;43052;52.588;13.396;2023-08-24T11:46:08;101140.44;;;30.27;33.18
57192;BME280;43052;52.588;13.396;2023-08-24T11:48:34;101127.28;;;30.01;32.80
57192;BME280;43052;52.588;13.396;2023-08-24T11:51:02;101135.97;;;29.82;33.31
57192;BME280;43052;52.588;13.396;2023-08-24T11:53:28;101136.97;;;29.93;33.76
57192;BME280;43052;52.588;13.396;2023-08-24T11:55:56;101124.44;;;29.92;32.84
57192;BME280;43052;52.588;13.396;2023-08-24T11:58:22;101125.19;;;29.94;33.25
57192;BME280;43052;52.588;13.396;2023-08-24T12:00:47;101122.88;;;30.00;33.01
57192;BME280;43052;52.588;13.396;2023-08-24T12:03:13;101113.31;;;29.96;33.21
57192;BME280;43052;52.588;13.396;2023-08-24T12:05:39;101097.72;;;29.89;33.97
57192;BME280;43052;52.588;13.396;2023-08-24T12:08:05;101126.75;;;30.08;33.72
57192;BME280;43052;52.588;13.396;2023-08-24T12:10:30;101120.91;;;29.91;33.20
57192;BME280;43052;52.588;13.396;2023-08-24T12:13:03;101127.78;;;29.61;33.40
57192;BME280;43052;52.588;13.396;2023-08-24T12:15:29;101121.56;;;29.38;33.83
57192;BME280;43052;52.588;13.396;2023-08-24T12:17:54;101112.88;;;29.34;33.79
57192;BME280;43052;52.588;13.396;2023-08-24T12:20:21;101110.56;;;29.41;33.96
57192;BME280;43052;52.588;13.396;2023-08-24T12:22:55;101101.88;;;29.37;33.88
57192;BME280;43052;52.588;13.396;2023-08-24T12:25:24;101084.69;;;29.16;33.89
57192;BME280;43052;52.588;13.396;2023-08-24T12:28:08;101103.19;;;29.09;33.83
57192;BME280;43052;52.588;13.396;2023-08-24T12:30:52;101102.53;;;29.05;34.63
57192;BME280;43052;52.588;13.396;2023-08-24T12:33:25;101095.59;;;29.14;34.74
57192;BME280;43052;52.588;13.396;2023-08-24T12:35:51;101090.09;;;29.27;34.57
57192;BME280;43052;52.588;13.396;2023-08-24T12:38:16;101092.91;;;29.26;34.71
57192;BME280;43052;52.588;13.396;2023-08-24T12:40:41;101078.84;;;29.22;34.95
57192;BME280;43052;52.588;13.396;2023-08-24T12:43:06;101079.59;;;29.35;34.73
57192;BME280;43052;52.588;13.396;2023-08-24T12:45:32;101069.41;;;29.39;34.52
57192;BME280;43052;52.588;13.396;2023-08-24T12:47:57;101058.50;;;29.52;34.34
57192;BME280;43052;52.588;13.396;2023-08-24T12:50:22;101058.50;;;29.63;34.58
57192;BME280;43052;52.588;13.396;2023-08-24T12:52:48;101055.41;;;29.68;33.54
57192;BME280;43052;52.588;13.396;2023-08-24T12:55:14;101051.16;;;29.65;34.13
57192;BME280;43052;52.588;13.396;2023-08-24T12:57:39;101039.88;;;29.60;34.33
57192;BME280;43052;52.588;13.396;2023-08-24T13:00:05;101049.16;;;29.67;33.53
57192;BME280;43052;52.588;13.396;2023-08-24T13:02:33;101037.19;;;29.49;34.08
57192;BME280;43052;52.588;13.396;2023-08-24T13:04:58;101044.91;;;29.53;34.22
57192;BME280;43052;52.588;13.396;2023-08-24T13:07:26;101032.44;;;29.52;34.77